Crystal Falls, Michigan
Current Conditions -  °F | °C
As of 3:54 PM on Thursday 27 Nov 2014 (Local Time) from KIMT Reporting Station
Clear Clear  
Wind Chill: -1°   Ceiling: Unl
Heat Index: 12°   Visibility: 10mi
Dew Point: -1°   Wind: 10mph
Humidity: 56%   Direction: 310°NW
Pressure: 30.3"   Gusts: NA
Location:  46.1°N, 88.33°W
Report Text: KIMT 272154Z AUTO 31009KT 10SM CLR M11/M18 A3030 RMK AO2 SLP289 T11111183
Loading
Personal Weather Stations






























Interactive Weather Map New forecast layout! Learn more

10-Day Weather Forecast

Advertisements
Track Severe Weather on mobile